sensor_id;sensor_type;location;lat;lon;timestamp;pressure;altitude;pressure_sealevel;temperature;humidity
58245;BME280;44550;43.864;25.986;2022-08-19T01:42:38;100629.22;;;25.51;61.90
58245;BME280;44550;43.864;25.986;2022-08-19T01:52:07;100643.56;;;25.50;61.83
58245;BME280;44550;43.864;25.986;2022-08-19T02:18:41;100670.28;;;26.13;60.46
58245;BME280;44550;43.864;25.986;2022-08-19T02:28:59;100665.22;;;25.77;61.83
58245;BME280;44550;43.864;25.986;2022-08-19T02:39:44;100679.56;;;25.60;62.85
58245;BME280;44550;43.864;25.986;2022-08-19T02:49:42;100682.84;;;25.34;64.07
58245;BME280;44550;43.864;25.986;2022-08-19T03:00:16;100687.50;;;25.14;64.41
58245;BME280;44550;43.864;25.986;2022-08-19T03:04:51;100691.97;;;24.96;64.43
58245;BME280;44550;43.864;25.986;2022-08-19T03:09:27;100689.28;;;24.80;64.81
58245;BME280;44550;43.864;25.986;2022-08-19T03:13:58;100692.44;;;24.71;65.17
58245;BME280;44550;43.864;25.986;2022-08-19T03:18:49;100695.28;;;24.68;65.41
58245;BME280;44550;43.864;25.986;2022-08-19T03:35:15;100696.53;;;24.61;65.96
58245;BME280;44550;43.864;25.986;2022-08-19T03:44:39;100701.50;;;24.51;67.04
58245;BME280;44550;43.864;25.986;2022-08-19T03:49:11;100702.38;;;24.52;67.40
58245;BME280;44550;43.864;25.986;2022-08-19T03:53:46;100706.50;;;24.75;67.22
58245;BME280;44550;43.864;25.986;2022-08-19T04:04:06;100725.59;;;25.51;64.14
58245;BME280;44550;43.864;25.986;2022-08-19T04:08:14;100712.91;;;26.02;63.16
58245;BME280;44550;43.864;25.986;2022-08-19T04:17:24;100717.00;;;27.97;58.37
58245;BME280;44550;43.864;25.986;2022-08-19T05:15:41;100731.97;;;33.96;45.07
58245;BME280;44550;43.864;25.986;2022-08-19T05:26:35;100735.41;;;32.87;46.29
58245;BME280;44550;43.864;25.986;2022-08-19T05:31:20;100729.75;;;32.16;48.14
58245;BME280;44550;43.864;25.986;2022-08-19T05:36:25;100734.47;;;31.91;48.44
58245;BME280;44550;43.864;25.986;2022-08-19T05:41:14;100740.75;;;31.92;47.47
58245;BME280;44550;43.864;25.986;2022-08-19T05:46:08;100742.25;;;31.96;47.16
58245;BME280;44550;43.864;25.986;2022-08-19T05:51:21;100739.78;;;31.93;46.86
58245;BME280;44550;43.864;25.986;2022-08-19T05:56:30;100750.97;;;31.88;46.89
58245;BME280;44550;43.864;25.986;2022-08-19T06:01:46;100744.59;;;32.21;46.14
58245;BME280;44550;43.864;25.986;2022-08-19T06:51:35;100721.88;;;32.66;42.68
58245;BME280;44550;43.864;25.986;2022-08-19T06:56:05;100709.72;;;33.02;42.33
58245;BME280;44550;43.864;25.986;2022-08-19T07:00:32;100733.41;;;33.71;41.53
58245;BME280;44550;43.864;25.986;2022-08-19T07:04:58;100728.59;;;34.13;39.97
58245;BME280;44550;43.864;25.986;2022-08-19T08:47:58;100714.13;;;34.81;36.31
58245;BME280;44550;43.864;25.986;2022-08-19T08:52:23;100680.91;;;34.97;35.60
58245;BME280;44550;43.864;25.986;2022-08-19T08:56:34;100713.84;;;34.84;35.69
58245;BME280;44550;43.864;25.986;2022-08-19T09:00:39;100712.59;;;34.59;37.09
58245;BME280;44550;43.864;25.986;2022-08-19T09:04:49;100712.66;;;34.87;35.77
58245;BME280;44550;43.864;25.986;2022-08-19T09:08:59;100712.41;;;34.70;35.78
58245;BME280;44550;43.864;25.986;2022-08-19T09:13:20;100694.13;;;34.72;36.13
58245;BME280;44550;43.864;25.986;2022-08-19T09:17:23;100704.31;;;35.17;34.96
58245;BME280;44550;43.864;25.986;2022-08-19T09:21:27;100702.97;;;35.49;35.30
58245;BME280;44550;43.864;25.986;2022-08-19T09:25:30;100711.97;;;35.49;33.76
58245;BME280;44550;43.864;25.986;2022-08-19T09:29:31;100705.13;;;35.55;34.19
58245;BME280;44550;43.864;25.986;2022-08-19T09:33:31;100705.91;;;35.38;33.84
58245;BME280;44550;43.864;25.986;2022-08-19T09:37:33;100707.44;;;35.13;34.74
58245;BME280;44550;43.864;25.986;2022-08-19T09:47:03;100701.19;;;35.02;34.55
58245;BME280;44550;43.864;25.986;2022-08-19T09:56:12;100681.50;;;35.28;34.54
58245;BME280;44550;43.864;25.986;2022-08-19T10:00:19;100654.66;;;35.15;35.11
58245;BME280;44550;43.864;25.986;2022-08-19T17:05:09;100484.31;;;35.78;31.55
58245;BME280;44550;43.864;25.986;2022-08-19T17:09:12;100486.97;;;35.95;31.83
58245;BME280;44550;43.864;25.986;2022-08-19T17:13:25;100485.53;;;36.01;31.34
58245;BME280;44550;43.864;25.986;2022-08-19T17:17:36;100469.59;;;35.88;31.36
58245;BME280;44550;43.864;25.986;2022-08-19T17:21:37;100501.13;;;35.99;31.90
58245;BME280;44550;43.864;25.986;2022-08-19T17:25:54;100496.16;;;35.94;31.70
58245;BME280;44550;43.864;25.986;2022-08-19T17:31:08;100501.94;;;35.91;31.42
58245;BME280;44550;43.864;25.986;2022-08-19T17:58:25;100539.97;;;33.61;35.36
58245;BME280;44550;43.864;25.986;2022-08-19T18:03:14;100549.34;;;33.37;35.82
58245;BME280;44550;43.864;25.986;2022-08-19T18:08:06;100550.59;;;33.14;36.66
58245;BME280;44550;43.864;25.986;2022-08-19T18:12:38;100485.19;;;32.38;37.41
58245;BME280;44550;43.864;25.986;2022-08-19T18:23:17;100559.50;;;32.55;37.48
58245;BME280;44550;43.864;25.986;2022-08-19T18:33:07;100569.22;;;32.05;38.75
58245;BME280;44550;43.864;25.986;2022-08-19T18:37:16;100573.06;;;31.92;39.05
58245;BME280;44550;43.864;25.986;2022-08-19T18:41:30;100562.56;;;31.77;39.27
58245;BME280;44550;43.864;25.986;2022-08-19T18:45:46;100531.16;;;31.65;39.18
58245;BME280;44550;43.864;25.986;2022-08-19T18:50:07;100564.16;;;31.80;39.11
58245;BME280;44550;43.864;25.986;2022-08-19T18:54:20;100582.94;;;31.81;39.10
58245;BME280;44550;43.864;25.986;2022-08-19T18:58:25;100581.97;;;31.82;38.99
58245;BME280;44550;43.864;25.986;2022-08-19T19:02:45;100589.00;;;31.74;38.84
58245;BME280;44550;43.864;25.986;2022-08-19T19:06:55;100587.84;;;31.55;38.82
58245;BME280;44550;43.864;25.986;2022-08-19T19:11:06;100594.75;;;31.48;39.08
58245;BME280;44550;43.864;25.986;2022-08-19T19:15:09;100580.44;;;31.37;39.06
58245;BME280;44550;43.864;25.986;2022-08-19T19:19:09;100588.91;;;31.21;39.39
58245;BME280;44550;43.864;25.986;2022-08-19T19:23:15;100558.75;;;30.93;39.57
58245;BME280;44550;43.864;25.986;2022-08-19T19:27:18;100608.06;;;31.18;39.20
58245;BME280;44550;43.864;25.986;2022-08-19T19:31:23;100599.59;;;31.11;39.38
58245;BME280;44550;43.864;25.986;2022-08-19T19:35:23;100597.63;;;31.02;39.87
58245;BME280;44550;43.864;25.986;2022-08-19T19:39:23;100603.53;;;30.96;39.99
58245;BME280;44550;43.864;25.986;2022-08-19T19:43:43;100610.66;;;31.08;39.47
58245;BME280;44550;43.864;25.986;2022-08-19T19:48:03;100607.59;;;31.01;39.61
58245;BME280;44550;43.864;25.986;2022-08-19T19:52:04;100611.75;;;31.05;39.45
58245;BME280;44550;43.864;25.986;2022-08-19T19:56:10;100613.97;;;31.11;39.03
58245;BME280;44550;43.864;25.986;2022-08-19T20:00:10;100618.53;;;31.00;39.19
58245;BME280;44550;43.864;25.986;2022-08-19T20:04:13;100624.53;;;30.81;39.44
58245;BME280;44550;43.864;25.986;2022-08-19T20:08:13;100624.16;;;30.74;39.53
58245;BME280;44550;43.864;25.986;2022-08-19T20:12:29;100624.25;;;30.73;39.39
58245;BME280;44550;43.864;25.986;2022-08-19T20:16:30;100639.81;;;30.69;39.43
58245;BME280;44550;43.864;25.986;2022-08-19T20:20:32;100630.59;;;30.49;39.81
58245;BME280;44550;43.864;25.986;2022-08-19T20:24:34;100639.78;;;30.35;40.16
58245;BME280;44550;43.864;25.986;2022-08-19T21:26:28;100574.97;;;29.30;42.56
58245;BME280;44550;43.864;25.986;2022-08-19T21:31:20;100626.06;;;29.55;42.70
58245;BME280;44550;43.864;25.986;2022-08-19T21:35:43;100627.50;;;29.61;42.83
58245;BME280;44550;43.864;25.986;2022-08-19T21:39:43;100610.53;;;29.59;42.29
58245;BME280;44550;43.864;25.986;2022-08-19T21:43:48;100590.00;;;29.45;42.19
58245;BME280;44550;43.864;25.986;2022-08-19T21:47:50;100620.25;;;29.61;42.28
58245;BME280;44550;43.864;25.986;2022-08-19T21:51:50;100630.38;;;29.58;42.46
58245;BME280;44550;43.864;25.986;2022-08-19T21:55:50;100620.38;;;29.47;42.77
58245;BME280;44550;43.864;25.986;2022-08-19T21:59:52;100627.97;;;29.42;42.98
58245;BME280;44550;43.864;25.986;2022-08-19T22:03:52;100622.84;;;29.50;42.99
58245;BME280;44550;43.864;25.986;2022-08-19T22:07:52;100615.13;;;29.69;42.38
58245;BME280;44550;43.864;25.986;2022-08-19T22:11:54;100612.38;;;29.58;42.67
58245;BME280;44550;43.864;25.986;2022-08-19T22:15:56;100607.84;;;29.59;42.81
58245;BME280;44550;43.864;25.986;2022-08-19T22:19:56;100616.88;;;29.70;42.28
58245;BME280;44550;43.864;25.986;2022-08-19T22:23:55;100613.00;;;29.86;42.45
58245;BME280;44550;43.864;25.986;2022-08-19T22:27:55;100603.22;;;30.20;41.64
58245;BME280;44550;43.864;25.986;2022-08-19T22:31:59;100624.69;;;30.22;41.62
58245;BME280;44550;43.864;25.986;2022-08-19T22:36:18;100622.41;;;30.15;41.67
58245;BME280;44550;43.864;25.986;2022-08-19T22:40:18;100609.78;;;30.05;41.92
58245;BME280;44550;43.864;25.986;2022-08-19T22:44:18;100610.22;;;29.87;42.00
58245;BME280;44550;43.864;25.986;2022-08-19T22:48:22;100592.03;;;29.54;42.69
58245;BME280;44550;43.864;25.986;2022-08-19T22:52:21;100603.47;;;29.45;43.29
58245;BME280;44550;43.864;25.986;2022-08-19T22:56:21;100608.66;;;29.48;42.87
58245;BME280;44550;43.864;25.986;2022-08-19T23:00:22;100602.06;;;29.52;42.84
58245;BME280;44550;43.864;25.986;2022-08-19T23:04:24;100606.91;;;29.47;42.86
58245;BME280;44550;43.864;25.986;2022-08-19T23:08:24;100596.75;;;29.26;42.98
58245;BME280;44550;43.864;25.986;2022-08-19T23:12:26;100592.53;;;29.11;43.66
58245;BME280;44550;43.864;25.986;2022-08-19T23:16:26;100585.41;;;28.97;44.17
58245;BME280;44550;43.864;25.986;2022-08-19T23:20:32;100587.81;;;28.76;44.70
58245;BME280;44550;43.864;25.986;2022-08-19T23:24:31;100572.78;;;28.48;45.32
58245;BME280;44550;43.864;25.986;2022-08-19T23:28:31;100574.81;;;28.32;45.83
58245;BME280;44550;43.864;25.986;2022-08-19T23:32:49;100581.16;;;28.18;46.42
58245;BME280;44550;43.864;25.986;2022-08-19T23:36:51;100576.84;;;28.16;46.54
58245;BME280;44550;43.864;25.986;2022-08-19T23:40:52;100579.31;;;28.19;46.90
58245;BME280;44550;43.864;25.986;2022-08-19T23:44:52;100573.84;;;28.46;46.73
58245;BME280;44550;43.864;25.986;2022-08-19T23:48:57;100566.50;;;28.73;46.01
58245;BME280;44550;43.864;25.986;2022-08-19T23:53:00;100565.09;;;28.80;45.70
58245;BME280;44550;43.864;25.986;2022-08-19T23:57:00;100550.84;;;28.54;46.22
